Time;durP1;ratioP1;P1;durP2;ratioP2;P2;SDS_P1;SDS_P2;PMS_P1;PMS_P2;Temp;Humidity;BMP_temperature;BMP_pressure;BME280_temperature;BME280_humidity;BME280_pressure;Samples;Min_cycle;Max_cycle;Signal;HPM_P1;HPM_P2
2023/12/14 00:02:23;;;;;;;25.63;12.53;;;;;;;;;;5036712;28;20324;-73
2023/12/14 00:04:48;;;;;;;28.50;12.83;;;;;;;;;;5032872;28;20230;-73
2023/12/14 00:07:15;;;;;;;28.40;14.60;;;;;;;;;;5032069;28;21261;-73
2023/12/14 00:09:40;;;;;;;26.17;13.10;;;;;;;;;;5032864;28;21036;-71
2023/12/14 00:12:06;;;;;;;31.47;13.37;;;;;;;;;;5032218;28;20316;-74
2023/12/14 00:14:31;;;;;;;27.77;13.40;;;;;;;;;;5035150;28;20229;-74
2023/12/14 00:16:58;;;;;;;25.03;12.53;;;;;;;;;;5018572;28;20222;-73
2023/12/14 00:19:24;;;;;;;25.37;12.63;;;;;;;;;;5029579;28;20226;-73
2023/12/14 00:21:49;;;;;;;26.27;12.53;;;;;;;;;;5014981;28;20225;-73
2023/12/14 00:24:15;;;;;;;27.30;12.50;;;;;;;;;;5030667;28;20283;-72
2023/12/14 00:26:40;;;;;;;25.97;12.07;;;;;;;;;;5030592;28;20253;-73
2023/12/14 00:29:05;;;;;;;26.97;12.70;;;;;;;;;;5028306;28;20218;-72
2023/12/14 00:31:31;;;;;;;29.43;12.47;;;;;;;;;;5018637;28;20233;-73
2023/12/14 00:33:56;;;;;;;27.07;12.80;;;;;;;;;;5016242;28;20229;-72
2023/12/14 00:36:21;;;;;;;25.37;12.10;;;;;;;;;;5032979;28;20741;-74
2023/12/14 00:38:47;;;;;;;25.97;12.40;;;;;;;;;;5032200;28;20783;-72
2023/12/14 00:41:12;;;;;;;25.73;12.57;;;;;;;;;;5017630;28;20724;-73
2023/12/14 00:43:38;;;;;;;22.50;11.97;;;;;;;;;;5031331;28;20267;-73
2023/12/14 00:46:03;;;;;;;22.80;11.53;;;;;;;;;;5049306;28;20222;-74
2023/12/14 00:48:28;;;;;;;27.33;12.53;;;;;;;;;;5032428;28;20214;-74
2023/12/14 00:50:54;;;;;;;24.33;12.10;;;;;;;;;;5030470;28;20218;-73
2023/12/14 00:53:19;;;;;;;28.87;14.40;;;;;;;;;;5030372;28;20272;-73
2023/12/14 00:55:45;;;;;;;25.73;12.87;;;;;;;;;;5029968;28;20750;-74
2023/12/14 00:58:12;;;;;;;26.43;12.83;;;;;;;;;;5016412;28;20248;-72
2023/12/14 01:00:38;;;;;;;25.67;12.70;;;;;;;;;;5031527;28;20217;-73
2023/12/14 01:03:03;;;;;;;28.50;13.20;;;;;;;;;;5017772;28;20864;-74
2023/12/14 01:05:28;;;;;;;24.30;12.10;;;;;;;;;;5031036;28;20234;-74
2023/12/14 01:07:54;;;;;;;25.47;11.90;;;;;;;;;;5031990;28;20222;-73
2023/12/14 01:10:19;;;;;;;23.43;11.60;;;;;;;;;;5033041;28;20230;-73
2023/12/14 01:12:44;;;;;;;24.97;12.33;;;;;;;;;;5029333;28;20222;-73
2023/12/14 01:15:10;;;;;;;27.83;13.03;;;;;;;;;;5028721;28;20222;-73
2023/12/14 01:17:37;;;;;;;26.40;12.37;;;;;;;;;;5030116;28;20221;-73
2023/12/14 01:20:06;;;;;;;26.30;12.67;;;;;;;;;;5014121;28;20230;-73
2023/12/14 01:22:32;;;;;;;25.60;12.70;;;;;;;;;;5029019;28;20251;-73
2023/12/14 01:24:57;;;;;;;25.17;12.53;;;;;;;;;;5029678;28;20245;-73
2023/12/14 01:27:22;;;;;;;28.40;12.80;;;;;;;;;;5029417;28;20257;-73
2023/12/14 01:29:48;;;;;;;24.17;11.73;;;;;;;;;;5030707;28;20751;-73
2023/12/14 01:32:14;;;;;;;25.23;11.57;;;;;;;;;;5030335;28;20663;-73
2023/12/14 01:34:39;;;;;;;25.10;12.67;;;;;;;;;;5033354;28;20221;-73
2023/12/14 01:37:04;;;;;;;21.83;11.80;;;;;;;;;;5037630;28;20246;-73
2023/12/14 01:39:30;;;;;;;25.40;12.57;;;;;;;;;;5016477;28;20229;-73
2023/12/14 01:41:55;;;;;;;24.43;12.00;;;;;;;;;;5017411;28;20210;-73
2023/12/14 01:44:20;;;;;;;24.83;11.90;;;;;;;;;;5033620;28;20213;-74
2023/12/14 01:46:46;;;;;;;28.97;12.37;;;;;;;;;;5031815;28;20840;-74
2023/12/14 01:49:11;;;;;;;25.00;11.87;;;;;;;;;;5030052;28;20279;-72
2023/12/14 01:51:36;;;;;;;27.17;11.70;;;;;;;;;;5017596;28;20226;-73
2023/12/14 01:54:02;;;;;;;26.63;12.40;;;;;;;;;;5018976;28;20255;-72
2023/12/14 01:56:27;;;;;;;25.13;11.80;;;;;;;;;;5019153;28;20296;-73
2023/12/14 01:58:52;;;;;;;24.70;11.60;;;;;;;;;;5022509;28;20213;-73
2023/12/14 02:01:19;;;;;;;26.93;12.13;;;;;;;;;;5032634;28;20221;-73
2023/12/14 02:03:45;;;;;;;26.73;12.13;;;;;;;;;;5033442;28;20214;-73
2023/12/14 02:06:11;;;;;;;28.37;12.33;;;;;;;;;;5018863;28;20296;-72
2023/12/14 02:08:36;;;;;;;25.03;12.50;;;;;;;;;;5018268;28;20302;-73
2023/12/14 02:11:02;;;;;;;23.00;12.17;;;;;;;;;;5035132;28;20303;-72
2023/12/14 02:13:27;;;;;;;27.00;12.47;;;;;;;;;;5032720;28;20313;-72
2023/12/14 02:15:53;;;;;;;25.87;12.60;;;;;;;;;;5019431;28;20230;-71
2023/12/14 02:18:19;;;;;;;28.63;12.57;;;;;;;;;;5031288;28;20848;-71
2023/12/14 02:20:44;;;;;;;27.63;12.87;;;;;;;;;;5015101;28;20226;-72
2023/12/14 02:23:09;;;;;;;26.90;13.13;;;;;;;;;;5035220;28;20232;-72
2023/12/14 02:25:35;;;;;;;25.67;12.80;;;;;;;;;;5039185;28;20371;-70
2023/12/14 02:28:00;;;;;;;28.63;13.27;;;;;;;;;;5032589;28;20231;-70
2023/12/14 02:30:25;;;;;;;31.57;13.47;;;;;;;;;;5036803;28;20226;-73
2023/12/14 02:32:51;;;;;;;28.53;13.13;;;;;;;;;;5030841;28;20214;-72
2023/12/14 02:35:18;;;;;;;28.23;13.33;;;;;;;;;;5032493;28;20665;-73
2023/12/14 02:37:43;;;;;;;26.00;13.10;;;;;;;;;;5032659;28;20229;-71
2023/12/14 02:40:09;;;;;;;29.83;13.47;;;;;;;;;;5031849;28;20226;-73
2023/12/14 02:42:34;;;;;;;24.87;13.27;;;;;;;;;;5034354;28;20786;-71
2023/12/14 02:45:01;;;;;;;26.87;13.10;;;;;;;;;;5018966;28;20225;-73
2023/12/14 02:47:27;;;;;;;28.60;13.30;;;;;;;;;;5040161;28;20247;-72
2023/12/14 02:49:52;;;;;;;26.57;13.07;;;;;;;;;;5035390;28;20241;-74
2023/12/14 02:52:17;;;;;;;27.97;13.13;;;;;;;;;;5031656;28;20614;-74
2023/12/14 02:54:43;;;;;;;29.50;13.80;;;;;;;;;;5033633;28;20236;-72
2023/12/14 02:57:08;;;;;;;28.80;12.77;;;;;;;;;;5034338;28;20214;-74
2023/12/14 02:59:34;;;;;;;25.13;12.87;;;;;;;;;;5016821;28;20237;-74
2023/12/14 03:01:59;;;;;;;25.60;12.90;;;;;;;;;;5032586;28;20657;-74
2023/12/14 03:04:25;;;;;;;29.07;13.80;;;;;;;;;;5032735;28;20241;-73
2023/12/14 03:06:50;;;;;;;26.73;13.43;;;;;;;;;;5032787;28;20241;-72
2023/12/14 03:09:15;;;;;;;29.20;13.47;;;;;;;;;;5035079;28;20236;-71
2023/12/14 03:11:41;;;;;;;29.00;13.33;;;;;;;;;;5032130;28;20222;-72
2023/12/14 03:14:06;;;;;;;27.77;13.23;;;;;;;;;;5019011;28;20265;-72
2023/12/14 03:16:31;;;;;;;25.60;12.93;;;;;;;;;;5031029;28;20249;-72
2023/12/14 03:18:57;;;;;;;26.57;12.57;;;;;;;;;;5021769;28;20240;-72
2023/12/14 03:21:23;;;;;;;30.87;13.07;;;;;;;;;;5033150;28;20269;-72
2023/12/14 03:23:48;;;;;;;28.73;13.97;;;;;;;;;;5036457;28;20242;-73
2023/12/14 03:26:13;;;;;;;27.33;12.77;;;;;;;;;;5016908;28;20244;-74
2023/12/14 03:28:39;;;;;;;27.00;12.77;;;;;;;;;;5017563;28;20218;-74
2023/12/14 03:31:04;;;;;;;26.40;13.17;;;;;;;;;;5030215;28;20226;-73
2023/12/14 03:33:30;;;;;;;29.07;13.30;;;;;;;;;;5016179;28;22167;-73
2023/12/14 03:35:55;;;;;;;28.83;14.00;;;;;;;;;;5018107;28;20221;-73
2023/12/14 03:38:20;;;;;;;28.83;14.13;;;;;;;;;;5018394;28;20225;-72
2023/12/14 03:40:46;;;;;;;30.83;15.17;;;;;;;;;;5033884;28;20783;-73
2023/12/14 03:43:11;;;;;;;28.77;13.93;;;;;;;;;;5034284;28;20225;-72
2023/12/14 03:45:36;;;;;;;25.20;12.73;;;;;;;;;;5031016;28;20925;-73
2023/12/14 03:48:02;;;;;;;29.57;14.87;;;;;;;;;;5033312;28;20256;-74
2023/12/14 03:50:28;;;;;;;29.70;14.93;;;;;;;;;;5027570;28;20245;-73
2023/12/14 03:52:54;;;;;;;29.97;15.70;;;;;;;;;;5031125;28;20379;-74
2023/12/14 03:55:19;;;;;;;28.87;14.53;;;;;;;;;;5031512;28;20934;-74
2023/12/14 03:57:45;;;;;;;27.03;13.90;;;;;;;;;;5016003;28;20253;-74
2023/12/14 04:00:11;;;;;;;28.00;14.17;;;;;;;;;;5030578;28;20865;-74
2023/12/14 04:02:36;;;;;;;38.90;18.53;;;;;;;;;;5039391;28;20242;-73
2023/12/14 04:05:02;;;;;;;26.67;13.03;;;;;;;;;;5030205;28;20230;-72
2023/12/14 04:07:27;;;;;;;28.50;13.83;;;;;;;;;;5030286;28;20233;-73
2023/12/14 04:09:52;;;;;;;28.77;14.00;;;;;;;;;;5017601;28;20233;-73
2023/12/14 04:12:18;;;;;;;25.37;12.80;;;;;;;;;;5031751;28;20746;-74
2023/12/14 04:14:44;;;;;;;29.23;14.70;;;;;;;;;;5030745;28;20217;-74
2023/12/14 04:17:10;;;;;;;31.80;16.00;;;;;;;;;;5020997;28;20682;-73
2023/12/14 04:19:35;;;;;;;31.97;14.90;;;;;;;;;;5029939;28;20737;-73
2023/12/14 04:22:00;;;;;;;27.57;12.97;;;;;;;;;;5029450;28;20275;-73
2023/12/14 04:24:26;;;;;;;24.57;11.43;;;;;;;;;;5032760;28;20225;-74
2023/12/14 04:26:51;;;;;;;24.93;12.67;;;;;;;;;;5033234;28;20270;-74
2023/12/14 04:29:16;;;;;;;24.63;12.23;;;;;;;;;;5013691;28;20241;-74
2023/12/14 04:31:42;;;;;;;33.33;14.43;;;;;;;;;;5014769;28;20218;-74
2023/12/14 04:34:11;;;;;;;26.87;12.50;;;;;;;;;;5032792;28;20306;-73
2023/12/14 04:36:37;;;;;;;25.87;12.53;;;;;;;;;;5017974;28;20240;-74
2023/12/14 04:39:02;;;;;;;25.10;11.73;;;;;;;;;;5019259;28;20312;-74
2023/12/14 04:41:28;;;;;;;27.47;13.40;;;;;;;;;;5030269;28;20221;-74
2023/12/14 04:43:53;;;;;;;24.33;12.40;;;;;;;;;;5031485;28;20221;-73
2023/12/14 04:46:19;;;;;;;29.17;13.80;;;;;;;;;;5031245;28;20764;-73
2023/12/14 04:48:44;;;;;;;29.13;13.60;;;;;;;;;;5014361;28;20217;-73
2023/12/14 04:51:13;;;;;;;32.50;15.03;;;;;;;;;;5017859;28;20237;-74
2023/12/14 04:53:38;;;;;;;29.13;13.97;;;;;;;;;;5018217;28;20225;-73
2023/12/14 04:56:04;;;;;;;35.17;16.13;;;;;;;;;;5018501;28;20233;-73
2023/12/14 04:58:29;;;;;;;30.73;14.17;;;;;;;;;;5027104;28;20252;-73
2023/12/14 05:00:55;;;;;;;34.10;16.97;;;;;;;;;;5011230;28;20615;-72
2023/12/14 05:03:20;;;;;;;32.50;16.13;;;;;;;;;;5033328;28;20256;-71
2023/12/14 05:05:45;;;;;;;34.97;16.87;;;;;;;;;;5028806;28;20303;-71
2023/12/14 05:08:11;;;;;;;37.37;18.37;;;;;;;;;;5030498;28;20226;-72
2023/12/14 05:10:36;;;;;;;38.03;17.57;;;;;;;;;;5014928;28;20754;-72
2023/12/14 05:13:01;;;;;;;36.10;17.03;;;;;;;;;;5031361;28;20214;-72
2023/12/14 05:15:27;;;;;;;35.67;16.97;;;;;;;;;;5013871;28;20664;-71
2023/12/14 05:17:52;;;;;;;31.70;14.70;;;;;;;;;;5017369;28;20756;-74
2023/12/14 05:20:17;;;;;;;31.00;15.50;;;;;;;;;;5032046;28;20272;-73
2023/12/14 05:22:43;;;;;;;31.93;14.47;;;;;;;;;;5029563;28;20283;-72
2023/12/14 05:25:08;;;;;;;33.27;15.23;;;;;;;;;;5027386;28;20250;-73
2023/12/14 05:27:34;;;;;;;30.13;14.33;;;;;;;;;;5018843;28;20237;-72
2023/12/14 05:29:59;;;;;;;27.47;14.10;;;;;;;;;;5030318;28;20794;-73
2023/12/14 05:32:24;;;;;;;25.97;13.40;;;;;;;;;;5037132;28;20298;-73
2023/12/14 05:34:50;;;;;;;25.67;12.30;;;;;;;;;;5008767;28;20218;-74
2023/12/14 05:37:16;;;;;;;26.80;13.20;;;;;;;;;;5028453;28;20233;-73
2023/12/14 05:39:42;;;;;;;24.97;13.50;;;;;;;;;;5014213;28;20792;-73
2023/12/14 05:42:07;;;;;;;30.70;12.90;;;;;;;;;;5029679;28;20228;-73
2023/12/14 05:44:32;;;;;;;25.90;12.20;;;;;;;;;;5028532;28;20229;-73
2023/12/14 05:46:58;;;;;;;28.10;12.33;;;;;;;;;;5032279;28;20238;-74
2023/12/14 05:49:23;;;;;;;24.97;12.43;;;;;;;;;;5029555;28;20278;-73
2023/12/14 05:51:48;;;;;;;25.33;11.67;;;;;;;;;;5020368;28;20236;-73
2023/12/14 05:54:14;;;;;;;28.97;12.50;;;;;;;;;;5029907;28;20217;-74
2023/12/14 05:56:39;;;;;;;23.10;11.87;;;;;;;;;;5028810;28;20218;-73
2023/12/14 05:59:04;;;;;;;23.77;11.10;;;;;;;;;;5013317;28;20218;-72
2023/12/14 06:01:30;;;;;;;25.40;11.60;;;;;;;;;;5029668;28;20271;-72
2023/12/14 06:03:55;;;;;;;26.40;12.00;;;;;;;;;;5009669;28;20222;-72
2023/12/14 06:06:21;;;;;;;25.50;11.37;;;;;;;;;;5028609;28;20259;-72
2023/12/14 06:08:46;;;;;;;26.33;11.83;;;;;;;;;;5030926;28;20299;-71
2023/12/14 06:11:11;;;;;;;21.30;11.10;;;;;;;;;;5014488;28;20256;-72
2023/12/14 06:13:37;;;;;;;23.20;11.40;;;;;;;;;;5011878;28;20252;-71
2023/12/14 06:16:03;;;;;;;23.27;10.80;;;;;;;;;;5013820;28;20295;-72
2023/12/14 06:18:28;;;;;;;22.83;10.57;;;;;;;;;;5031946;28;20230;-73
2023/12/14 06:20:53;;;;;;;24.00;11.70;;;;;;;;;;5029886;28;20225;-73
2023/12/14 06:23:19;;;;;;;25.63;11.53;;;;;;;;;;5017198;28;20221;-73
2023/12/14 06:25:44;;;;;;;23.13;11.53;;;;;;;;;;5038296;28;20223;-73
2023/12/14 06:28:10;;;;;;;24.10;11.07;;;;;;;;;;5017084;28;20270;-72
2023/12/14 06:30:35;;;;;;;26.97;12.50;;;;;;;;;;5042231;28;20217;-71
2023/12/14 06:33:01;;;;;;;31.60;16.00;;;;;;;;;;5019733;28;20327;-71
2023/12/14 06:35:26;;;;;;;33.53;18.83;;;;;;;;;;5032006;28;20221;-71
2023/12/14 06:37:51;;;;;;;29.50;14.90;;;;;;;;;;5028997;28;20305;-72
2023/12/14 06:40:17;;;;;;;27.43;12.97;;;;;;;;;;5019938;28;20312;-72
2023/12/14 06:42:42;;;;;;;26.50;13.80;;;;;;;;;;5031624;28;20319;-71
2023/12/14 06:45:08;;;;;;;26.07;13.03;;;;;;;;;;5032254;28;20221;-71
2023/12/14 06:47:33;;;;;;;24.87;12.80;;;;;;;;;;5021661;28;20242;-72
2023/12/14 06:49:58;;;;;;;27.73;13.20;;;;;;;;;;5041094;28;20225;-71
2023/12/14 06:52:24;;;;;;;27.13;12.60;;;;;;;;;;5023699;28;20217;-70
2023/12/14 06:54:49;;;;;;;28.20;12.90;;;;;;;;;;5020137;28;20228;-71
2023/12/14 06:57:14;;;;;;;31.67;15.07;;;;;;;;;;5014712;28;20691;-72
2023/12/14 06:59:40;;;;;;;25.83;13.13;;;;;;;;;;5031674;28;20698;-71
2023/12/14 07:02:05;;;;;;;25.43;13.50;;;;;;;;;;5035277;28;20245;-71
2023/12/14 07:04:31;;;;;;;26.80;12.83;;;;;;;;;;5034110;28;20239;-71
2023/12/14 07:06:56;;;;;;;32.70;14.23;;;;;;;;;;5012389;28;20237;-73
2023/12/14 07:09:21;;;;;;;28.17;13.73;;;;;;;;;;5017610;28;20777;-72
2023/12/14 07:11:47;;;;;;;30.53;13.60;;;;;;;;;;5041849;28;20597;-71
2023/12/14 07:14:14;;;;;;;24.60;11.97;;;;;;;;;;5032551;28;20230;-72
2023/12/14 07:16:39;;;;;;;27.00;12.60;;;;;;;;;;5019102;28;20721;-71
2023/12/14 07:19:05;;;;;;;24.33;11.83;;;;;;;;;;5032230;28;20221;-71
2023/12/14 07:21:30;;;;;;;27.97;13.03;;;;;;;;;;5030905;28;20221;-71
2023/12/14 07:23:55;;;;;;;25.17;12.07;;;;;;;;;;5027594;28;20225;-73
2023/12/14 07:26:21;;;;;;;26.37;12.63;;;;;;;;;;5030210;28;20226;-71
2023/12/14 07:28:47;;;;;;;27.53;12.67;;;;;;;;;;5032098;28;20228;-70
2023/12/14 07:31:12;;;;;;;26.93;13.10;;;;;;;;;;5034337;28;20761;-72
2023/12/14 07:33:37;;;;;;;26.83;13.27;;;;;;;;;;5028527;28;20226;-71
2023/12/14 07:36:04;;;;;;;28.67;13.60;;;;;;;;;;5013481;28;20233;-72
2023/12/14 07:38:30;;;;;;;29.00;13.70;;;;;;;;;;5026249;28;20233;-73
2023/12/14 07:40:55;;;;;;;24.40;13.40;;;;;;;;;;5032446;28;20226;-72
2023/12/14 07:43:21;;;;;;;29.37;13.53;;;;;;;;;;5028242;28;20218;-72
2023/12/14 07:45:46;;;;;;;31.33;15.07;;;;;;;;;;5030149;28;20225;-71
2023/12/14 07:48:12;;;;;;;27.77;14.33;;;;;;;;;;5030140;28;20226;-72
2023/12/14 07:50:38;;;;;;;27.77;13.53;;;;;;;;;;5029032;28;20756;-72
2023/12/14 07:53:04;;;;;;;29.27;14.27;;;;;;;;;;5023515;28;20228;-71
2023/12/14 07:55:29;;;;;;;30.50;15.37;;;;;;;;;;5029548;28;20635;-72
2023/12/14 07:57:55;;;;;;;23.30;12.73;;;;;;;;;;5030106;28;20217;-72
2023/12/14 08:00:20;;;;;;;24.93;13.37;;;;;;;;;;5034691;28;20240;-72
2023/12/14 08:02:45;;;;;;;33.27;14.07;;;;;;;;;;5031011;28;20307;-71
2023/12/14 08:05:11;;;;;;;29.77;14.00;;;;;;;;;;5026740;28;20299;-71
2023/12/14 08:07:36;;;;;;;26.30;12.73;;;;;;;;;;5028466;28;20282;-70
2023/12/14 08:10:03;;;;;;;26.03;12.80;;;;;;;;;;5029454;28;20228;-72
2023/12/14 08:12:28;;;;;;;27.77;13.27;;;;;;;;;;5029577;28;20301;-71
2023/12/14 08:14:54;;;;;;;27.90;12.47;;;;;;;;;;5028468;28;20309;-72
2023/12/14 08:17:19;;;;;;;29.07;12.97;;;;;;;;;;5030232;28;20673;-71
2023/12/14 08:19:44;;;;;;;25.77;12.37;;;;;;;;;;5016054;28;20276;-71
2023/12/14 08:22:12;;;;;;;26.90;11.83;;;;;;;;;;5036971;28;20249;-71
2023/12/14 08:24:37;;;;;;;26.87;12.57;;;;;;;;;;5017524;28;20218;-71
2023/12/14 08:27:03;;;;;;;26.97;12.10;;;;;;;;;;5042759;28;20248;-72
2023/12/14 08:29:28;;;;;;;30.30;13.00;;;;;;;;;;5015677;28;20218;-72
2023/12/14 08:31:56;;;;;;;25.60;12.13;;;;;;;;;;5028986;28;20221;-72
2023/12/14 08:34:22;;;;;;;26.40;11.93;;;;;;;;;;5015799;28;20242;-71
2023/12/14 08:36:47;;;;;;;28.13;12.50;;;;;;;;;;5030354;28;20257;-73
2023/12/14 08:39:13;;;;;;;23.90;11.33;;;;;;;;;;5030477;28;20250;-71
2023/12/14 08:41:38;;;;;;;33.90;12.77;;;;;;;;;;5018515;28;20210;-72
2023/12/14 08:44:04;;;;;;;26.50;11.20;;;;;;;;;;5029731;28;20225;-72
2023/12/14 08:46:29;;;;;;;24.33;10.13;;;;;;;;;;5017668;28;20451;-70
2023/12/14 08:48:54;;;;;;;1053.77;37.97;;;;;;;;;;5039315;28;20280;-71
2023/12/14 08:51:21;;;;;;;36.83;10.37;;;;;;;;;;5026687;28;20248;-72
2023/12/14 08:53:46;;;;;;;24.47;9.70;;;;;;;;;;5017408;28;20214;-71
2023/12/14 08:56:11;;;;;;;20.57;9.17;;;;;;;;;;5019741;28;20228;-71
2023/12/14 08:58:36;;;;;;;17.10;8.23;;;;;;;;;;5028471;28;20244;-72
2023/12/14 09:01:02;;;;;;;17.17;8.73;;;;;;;;;;5032357;28;20229;-71
2023/12/14 09:03:27;;;;;;;19.13;8.67;;;;;;;;;;5025697;28;20310;-71
2023/12/14 09:05:53;;;;;;;22.23;9.23;;;;;;;;;;5039051;28;20328;-72
2023/12/14 09:08:18;;;;;;;20.20;8.87;;;;;;;;;;5038822;28;20295;-71
2023/12/14 09:10:44;;;;;;;19.63;8.57;;;;;;;;;;5030600;28;20252;-71
2023/12/14 09:13:09;;;;;;;19.97;8.30;;;;;;;;;;5038915;28;20767;-72
2023/12/14 09:15:35;;;;;;;20.73;8.63;;;;;;;;;;5015681;28;20319;-72
2023/12/14 09:18:00;;;;;;;22.13;9.07;;;;;;;;;;5038858;28;20387;-71
2023/12/14 09:20:25;;;;;;;19.33;8.80;;;;;;;;;;5032172;28;20229;-71
2023/12/14 09:22:51;;;;;;;18.17;8.93;;;;;;;;;;5038109;28;20226;-71
2023/12/14 09:25:18;;;;;;;17.97;8.27;;;;;;;;;;5030318;28;20237;-71
2023/12/14 09:27:43;;;;;;;19.00;8.60;;;;;;;;;;5017827;28;20324;-71
2023/12/14 09:30:09;;;;;;;17.80;8.17;;;;;;;;;;5029049;28;20304;-71
2023/12/14 09:32:34;;;;;;;13.73;7.90;;;;;;;;;;5034264;28;20230;-71
2023/12/14 09:35:00;;;;;;;19.03;8.00;;;;;;;;;;5032887;28;20221;-72
2023/12/14 09:37:25;;;;;;;18.47;8.03;;;;;;;;;;5029625;28;20996;-71
2023/12/14 09:39:51;;;;;;;16.93;8.47;;;;;;;;;;5031390;28;20279;-71
2023/12/14 09:42:18;;;;;;;16.40;7.93;;;;;;;;;;5029579;28;20302;-72
2023/12/14 09:44:43;;;;;;;17.40;8.40;;;;;;;;;;5022952;28;20589;-72
2023/12/14 09:47:08;;;;;;;18.20;8.20;;;;;;;;;;5027995;28;20726;-72
2023/12/14 09:49:33;;;;;;;17.97;7.80;;;;;;;;;;5033180;28;20229;-72
2023/12/14 09:51:59;;;;;;;16.73;7.93;;;;;;;;;;5031556;28;20304;-72
2023/12/14 09:54:27;;;;;;;19.00;8.07;;;;;;;;;;5029652;28;20241;-72
2023/12/14 09:56:53;;;;;;;17.23;6.90;;;;;;;;;;5031299;28;20226;-72
2023/12/14 09:59:18;;;;;;;13.77;7.13;;;;;;;;;;5026887;28;20286;-72
2023/12/14 10:01:44;;;;;;;18.67;7.53;;;;;;;;;;5018799;28;20264;-71
2023/12/14 10:04:13;;;;;;;15.40;7.30;;;;;;;;;;5032675;28;20328;-71
2023/12/14 10:06:39;;;;;;;22.70;7.53;;;;;;;;;;5018716;28;20601;-71
2023/12/14 10:09:08;;;;;;;16.87;7.20;;;;;;;;;;5036054;28;20233;-73
2023/12/14 10:11:33;;;;;;;16.17;7.70;;;;;;;;;;5015212;28;20239;-73
2023/12/14 10:13:59;;;;;;;14.67;7.87;;;;;;;;;;5018854;28;20753;-73
2023/12/14 10:16:31;;;;;;;20.97;8.13;;;;;;;;;;5018901;28;20222;-73
2023/12/14 10:18:57;;;;;;;22.80;8.60;;;;;;;;;;5042295;28;20248;-74
2023/12/14 10:21:23;;;;;;;20.37;8.77;;;;;;;;;;5033263;28;20269;-73
2023/12/14 10:23:48;;;;;;;24.87;8.60;;;;;;;;;;5033459;28;20671;-73
2023/12/14 10:26:14;;;;;;;21.67;8.73;;;;;;;;;;5033647;28;20226;-73
2023/12/14 10:28:39;;;;;;;17.70;8.70;;;;;;;;;;5041974;28;20225;-72
2023/12/14 10:31:05;;;;;;;15.27;8.37;;;;;;;;;;5031613;28;20218;-73
2023/12/14 10:33:30;;;;;;;17.80;8.83;;;;;;;;;;5031262;28;20213;-71
2023/12/14 10:35:56;;;;;;;21.23;8.67;;;;;;;;;;5041174;28;20219;-72
2023/12/14 10:38:21;;;;;;;19.40;9.00;;;;;;;;;;5015300;28;20295;-73
2023/12/14 10:40:47;;;;;;;21.03;10.00;;;;;;;;;;5019033;28;20780;-73
2023/12/14 10:43:12;;;;;;;22.80;10.50;;;;;;;;;;5033612;28;20222;-71
2023/12/14 10:45:37;;;;;;;25.53;10.40;;;;;;;;;;5021131;28;20251;-73
2023/12/14 10:48:03;;;;;;;26.10;10.93;;;;;;;;;;5035879;28;20615;-73
2023/12/14 10:50:29;;;;;;;30.13;11.63;;;;;;;;;;5019286;28;20222;-73
2023/12/14 10:52:54;;;;;;;25.13;11.37;;;;;;;;;;5032593;28;20768;-74
2023/12/14 10:55:25;;;;;;;27.17;11.03;;;;;;;;;;5032364;28;20668;-73
2023/12/14 10:57:53;;;;;;;27.90;11.40;;;;;;;;;;5025934;28;20221;-73
2023/12/14 11:00:19;;;;;;;23.63;11.13;;;;;;;;;;5032949;28;20233;-71
2023/12/14 11:02:47;;;;;;;29.13;10.40;;;;;;;;;;5032809;28;20226;-71
2023/12/14 11:05:15;;;;;;;18.90;9.30;;;;;;;;;;5034845;28;20264;-72
2023/12/14 11:07:47;;;;;;;16.13;8.10;;;;;;;;;;5034027;28;20240;-71
2023/12/14 11:10:12;;;;;;;12.70;6.93;;;;;;;;;;5040678;28;20307;-71
2023/12/14 11:12:38;;;;;;;11.37;5.93;;;;;;;;;;5033768;28;20669;-71
2023/12/14 11:15:05;;;;;;;13.47;6.07;;;;;;;;;;5041371;28;20812;-71
2023/12/14 11:17:30;;;;;;;9.07;4.87;;;;;;;;;;5029431;28;20228;-72
2023/12/14 11:19:56;;;;;;;8.10;4.70;;;;;;;;;;5030163;28;20225;-72
2023/12/14 11:22:24;;;;;;;9.03;4.80;;;;;;;;;;5040588;28;20309;-72
2023/12/14 11:24:54;;;;;;;9.33;4.50;;;;;;;;;;5034853;28;20229;-70
2023/12/14 11:27:26;;;;;;;5.80;3.43;;;;;;;;;;5019175;28;20312;-71
2023/12/14 11:29:52;;;;;;;6.57;3.60;;;;;;;;;;5025858;28;20241;-72
2023/12/14 11:32:18;;;;;;;6.43;3.10;;;;;;;;;;5031459;28;20245;-72
2023/12/14 11:34:45;;;;;;;6.07;2.93;;;;;;;;;;5031139;28;20232;-71
2023/12/14 11:37:10;;;;;;;11.13;3.13;;;;;;;;;;5041778;28;20230;-73
2023/12/14 11:39:36;;;;;;;5.77;2.87;;;;;;;;;;5016729;28;20621;-73
2023/12/14 11:42:02;;;;;;;7.27;2.70;;;;;;;;;;5030769;28;20461;-73
2023/12/14 11:44:28;;;;;;;3.27;2.13;;;;;;;;;;5031657;28;20232;-72
2023/12/14 11:46:54;;;;;;;6.50;2.50;;;;;;;;;;5018023;28;20230;-74
2023/12/14 11:49:19;;;;;;;3.40;1.93;;;;;;;;;;5029772;28;20709;-74
2023/12/14 11:51:47;;;;;;;2.70;2.03;;;;;;;;;;5031868;28;20218;-73
2023/12/14 11:54:13;;;;;;;7.20;2.00;;;;;;;;;;5018517;28;20236;-72
2023/12/14 11:56:39;;;;;;;6.13;2.47;;;;;;;;;;5032807;28;20210;-73
2023/12/14 11:59:04;;;;;;;4.50;1.80;;;;;;;;;;5029686;28;20628;-74
2023/12/14 12:01:31;;;;;;;4.00;1.90;;;;;;;;;;5016016;28;20222;-72
2023/12/14 12:03:57;;;;;;;4.00;2.10;;;;;;;;;;5017694;28;20308;-75
2023/12/14 12:06:23;;;;;;;4.63;1.90;;;;;;;;;;5032866;28;20304;-73
2023/12/14 12:08:48;;;;;;;5.77;1.73;;;;;;;;;;5030796;28;20321;-74
2023/12/14 12:11:20;;;;;;;4.43;1.50;;;;;;;;;;5029429;28;20317;-73
2023/12/14 12:13:50;;;;;;;2.83;1.43;;;;;;;;;;5041099;28;20976;-73
2023/12/14 12:16:15;;;;;;;5.60;1.87;;;;;;;;;;5039778;28;20226;-74
2023/12/14 12:18:40;;;;;;;2.53;1.60;;;;;;;;;;5022893;28;20228;-73
2023/12/14 12:21:08;;;;;;;2.30;1.50;;;;;;;;;;5032368;28;21121;-73
2023/12/14 12:23:33;;;;;;;2.57;1.50;;;;;;;;;;5031465;28;20266;-74
2023/12/14 12:25:58;;;;;;;3.13;1.50;;;;;;;;;;5030496;28;20267;-73
2023/12/14 12:28:24;;;;;;;2.43;1.53;;;;;;;;;;5033234;28;20226;-73
2023/12/14 12:30:49;;;;;;;2.90;2.00;;;;;;;;;;5027779;28;20308;-75
2023/12/14 12:33:14;;;;;;;4.20;1.97;;;;;;;;;;5032870;28;20221;-73
2023/12/14 12:35:40;;;;;;;2.23;1.60;;;;;;;;;;5031228;28;20270;-73
2023/12/14 12:38:05;;;;;;;1.63;1.50;;;;;;;;;;5035528;28;20907;-73
2023/12/14 12:40:33;;;;;;;3.80;1.60;;;;;;;;;;5033386;28;20220;-72
2023/12/14 12:42:58;;;;;;;4.07;1.60;;;;;;;;;;5037706;28;20878;-72
2023/12/14 12:45:27;;;;;;;3.83;1.50;;;;;;;;;;5019872;28;20252;-72
2023/12/14 12:47:53;;;;;;;2.43;1.60;;;;;;;;;;5027331;28;20367;-72
2023/12/14 12:50:18;;;;;;;3.37;1.50;;;;;;;;;;5022940;28;20219;-71
2023/12/14 12:52:45;;;;;;;3.50;1.60;;;;;;;;;;5034888;28;20225;-70
2023/12/14 12:55:11;;;;;;;2.73;1.57;;;;;;;;;;5015430;28;20230;-72
2023/12/14 12:57:36;;;;;;;1.73;1.40;;;;;;;;;;5022989;28;20224;-71
2023/12/14 13:00:04;;;;;;;4.57;1.60;;;;;;;;;;5031966;28;20663;-72
2023/12/14 13:02:29;;;;;;;2.17;1.50;;;;;;;;;;5030870;28;20213;-72
2023/12/14 13:04:54;;;;;;;2.73;1.70;;;;;;;;;;5014257;28;20628;-72
2023/12/14 13:07:20;;;;;;;2.30;1.57;;;;;;;;;;5028731;28;20283;-72
2023/12/14 13:09:45;;;;;;;2.67;1.50;;;;;;;;;;5028354;28;20218;-71
2023/12/14 13:12:10;;;;;;;3.67;1.70;;;;;;;;;;5038835;28;26984;-72
2023/12/14 13:14:36;;;;;;;4.10;1.50;;;;;;;;;;5029161;28;20703;-71
2023/12/14 13:17:01;;;;;;;3.30;1.53;;;;;;;;;;5013056;28;20693;-72
2023/12/14 13:19:27;;;;;;;2.50;1.70;;;;;;;;;;5030318;28;20221;-70
2023/12/14 13:21:52;;;;;;;2.87;1.80;;;;;;;;;;5038429;28;20209;-72
2023/12/14 13:24:18;;;;;;;2.40;1.50;;;;;;;;;;5031256;28;20296;-71
2023/12/14 13:26:43;;;;;;;4.50;1.60;;;;;;;;;;5025876;28;20222;-73
2023/12/14 13:29:08;;;;;;;4.90;1.50;;;;;;;;;;5029572;28;20312;-71
2023/12/14 13:31:34;;;;;;;2.50;1.67;;;;;;;;;;5016890;28;20226;-72
2023/12/14 13:33:59;;;;;;;3.50;1.50;;;;;;;;;;5026572;28;20249;-71
2023/12/14 13:36:24;;;;;;;4.30;1.63;;;;;;;;;;5015473;28;20221;-71
2023/12/14 13:38:50;;;;;;;2.47;1.50;;;;;;;;;;5026765;28;20736;-71
2023/12/14 13:41:15;;;;;;;2.03;1.60;;;;;;;;;;5030738;28;20212;-71
2023/12/14 13:43:40;;;;;;;3.20;1.60;;;;;;;;;;5033924;28;20226;-73
2023/12/14 13:46:06;;;;;;;3.47;2.33;;;;;;;;;;5025389;28;20698;-74
2023/12/14 13:48:31;;;;;;;2.30;1.40;;;;;;;;;;5031307;28;20301;-74
2023/12/14 13:50:57;;;;;;;3.10;1.50;;;;;;;;;;5028840;28;20226;-74
2023/12/14 13:53:22;;;;;;;2.63;1.50;;;;;;;;;;5044875;28;20317;-72
2023/12/14 13:55:50;;;;;;;3.23;1.93;;;;;;;;;;5039488;28;20614;-74
2023/12/14 13:58:16;;;;;;;6.50;2.50;;;;;;;;;;5038632;28;20279;-73
2023/12/14 14:00:41;;;;;;;6.83;3.20;;;;;;;;;;5014600;28;20706;-74
2023/12/14 14:03:07;;;;;;;6.20;2.60;;;;;;;;;;5033942;28;20255;-73
2023/12/14 14:05:33;;;;;;;4.67;2.43;;;;;;;;;;5031528;28;20261;-72
2023/12/14 14:07:58;;;;;;;5.37;1.93;;;;;;;;;;5030468;28;20290;-73
2023/12/14 14:10:23;;;;;;;4.43;1.80;;;;;;;;;;5029013;28;20228;-74
2023/12/14 14:12:50;;;;;;;5.83;1.93;;;;;;;;;;5031117;28;20249;-73
2023/12/14 14:15:15;;;;;;;5.00;1.80;;;;;;;;;;5024730;28;20226;-73